createdAt,value
2023-07-08T00:00:54.685Z,5.80
2023-07-08T00:03:21.838Z,5.93
2023-07-08T00:05:54.284Z,5.70
2023-07-08T00:08:22.254Z,5.28
2023-07-08T00:10:49.330Z,5.72
2023-07-08T00:13:16.552Z,5.80
2023-07-08T00:15:43.672Z,5.88
2023-07-08T00:18:16.278Z,5.93
2023-07-08T00:20:48.926Z,5.25
2023-07-08T00:23:16.183Z,6.20
2023-07-08T00:25:44.074Z,5.15
2023-07-08T00:28:20.634Z,5.28
2023-07-08T00:30:49.403Z,5.05
2023-07-08T00:33:18.052Z,5.63
2023-07-08T00:35:46.597Z,5.47
2023-07-08T00:38:16.751Z,5.65
2023-07-08T00:40:52.804Z,5.03
2023-07-08T00:43:30.426Z,5.80
2023-07-08T00:46:14.685Z,5.78
2023-07-08T00:48:42.817Z,5.63
2023-07-08T00:51:13.386Z,5.63
2023-07-08T00:53:40.549Z,5.35
2023-07-08T00:56:14.368Z,6.05
2023-07-08T00:58:50.281Z,5.00
2023-07-08T01:01:18.328Z,4.43
2023-07-08T01:03:56.869Z,4.70
2023-07-08T01:06:32.274Z,4.65
2023-07-08T01:09:05.989Z,4.65
2023-07-08T01:11:35.153Z,4.75
2023-07-08T01:14:05.661Z,5.28
2023-07-08T01:16:34.988Z,4.95
2023-07-08T01:19:05.407Z,5.07
2023-07-08T01:21:32.594Z,5.45
2023-07-08T01:24:02.574Z,5.30
2023-07-08T01:26:31.361Z,4.78
2023-07-08T01:28:59.090Z,5.32
2023-07-08T01:31:26.340Z,5.13
2023-07-08T01:33:54.555Z,4.53
2023-07-08T01:36:26.114Z,5.18
2023-07-08T01:38:53.589Z,4.55
2023-07-08T01:41:20.701Z,4.90
2023-07-08T01:43:47.844Z,4.93
2023-07-08T01:46:23.019Z,5.13
2023-07-08T01:48:55.566Z,5.10
2023-07-08T01:51:23.566Z,4.47
2023-07-08T01:53:50.784Z,5.15
2023-07-08T01:56:18.298Z,4.75
2023-07-08T01:58:45.450Z,4.38
2023-07-08T02:01:12.540Z,5.25
2023-07-08T02:03:40.077Z,4.40
2023-07-08T02:06:09.207Z,4.65
2023-07-08T02:08:36.285Z,5.10
2023-07-08T02:11:03.583Z,4.45
2023-07-08T02:13:31.096Z,4.45
2023-07-08T02:15:58.186Z,4.93
2023-07-08T02:18:26.370Z,4.47
2023-07-08T02:20:53.730Z,4.20
2023-07-08T02:23:21.124Z,4.10
2023-07-08T02:25:55.704Z,4.25
2023-07-08T02:28:23.517Z,4.45
2023-07-08T02:30:50.564Z,4.63
2023-07-08T02:33:20.592Z,3.97
2023-07-08T02:35:47.652Z,4.78
2023-07-08T02:38:14.669Z,4.35
2023-07-08T02:40:41.872Z,4.75
2023-07-08T02:43:09.210Z,4.97
2023-07-08T02:45:37.441Z,4.45
2023-07-08T02:48:05.099Z,4.53
2023-07-08T02:50:32.969Z,4.95
2023-07-08T02:53:00.137Z,5.03
2023-07-08T02:55:27.170Z,4.63
2023-07-08T02:57:54.202Z,4.60
2023-07-08T03:00:21.360Z,4.60
2023-07-08T03:02:48.416Z,4.20
2023-07-08T03:05:15.622Z,4.32
2023-07-08T03:07:42.674Z,3.92
2023-07-08T03:10:10.385Z,4.63
2023-07-08T03:12:37.485Z,5.10
2023-07-08T03:15:05.963Z,4.85
2023-07-08T03:17:33.070Z,4.00
2023-07-08T03:20:00.163Z,4.15
2023-07-08T03:22:27.291Z,4.60
2023-07-08T03:24:54.429Z,4.13
2023-07-08T03:27:22.736Z,3.92
2023-07-08T03:29:51.561Z,4.35
2023-07-08T03:32:18.728Z,3.78
2023-07-08T03:34:46.071Z,3.60
2023-07-08T03:37:14.518Z,4.03
2023-07-08T03:39:41.608Z,3.05
2023-07-08T03:42:09.181Z,3.72
2023-07-08T03:44:36.284Z,3.85
2023-07-08T03:47:03.536Z,3.67
2023-07-08T03:49:30.803Z,3.92
2023-07-08T03:51:57.934Z,3.75
2023-07-08T03:54:26.416Z,4.07
2023-07-08T03:56:56.918Z,3.67
2023-07-08T03:59:26.511Z,5.88
2023-07-08T04:01:56.019Z,4.15
2023-07-08T04:04:25.493Z,4.07
2023-07-08T04:06:52.737Z,4.72
2023-07-08T04:09:19.872Z,4.88
2023-07-08T04:11:47.112Z,4.78
2023-07-08T04:14:14.550Z,4.57
2023-07-08T04:16:53.264Z,4.72
2023-07-08T04:19:20.632Z,4.82
2023-07-08T04:21:47.820Z,4.20
2023-07-08T04:24:17.434Z,4.35
2023-07-08T04:26:47.294Z,5.15
2023-07-08T04:29:17.205Z,4.93
2023-07-08T04:31:44.407Z,6.03
2023-07-08T04:34:11.474Z,5.53
2023-07-08T04:36:38.843Z,5.13
2023-07-08T04:39:08.209Z,5.03
2023-07-08T04:41:41.529Z,4.85
2023-07-08T04:44:09.445Z,4.18
2023-07-08T04:46:40.698Z,4.28
2023-07-08T04:49:10.605Z,4.45
2023-07-08T04:51:39.011Z,5.38
2023-07-08T04:54:06.458Z,4.18
2023-07-08T04:56:42.348Z,4.45
2023-07-08T04:59:11.195Z,4.10
2023-07-08T05:01:39.164Z,4.00
2023-07-08T05:04:07.652Z,4.53
2023-07-08T05:06:35.323Z,4.35
2023-07-08T05:09:03.999Z,4.03
2023-07-08T05:11:32.191Z,4.50
2023-07-08T05:14:00.021Z,4.00
2023-07-08T05:16:27.221Z,3.95
2023-07-08T05:18:54.417Z,3.83
2023-07-08T05:21:21.724Z,3.75
2023-07-08T05:23:52.492Z,4.30
2023-07-08T05:26:19.601Z,3.45
2023-07-08T05:28:47.007Z,4.60
2023-07-08T05:31:14.161Z,5.53
2023-07-08T05:33:41.224Z,5.15
2023-07-08T05:36:08.498Z,4.55
2023-07-08T05:38:35.620Z,4.38
2023-07-08T05:41:03.017Z,4.80
2023-07-08T05:43:30.409Z,5.03
2023-07-08T05:46:12.434Z,4.22
2023-07-08T05:48:40.631Z,4.43
2023-07-08T05:51:07.910Z,4.18
2023-07-08T05:53:34.952Z,4.25
2023-07-08T05:56:03.940Z,4.63
2023-07-08T05:58:31.051Z,4.63
2023-07-08T06:00:59.612Z,4.03
2023-07-08T06:03:27.283Z,4.60
2023-07-08T06:05:54.425Z,4.10
2023-07-08T06:08:21.531Z,3.97
2023-07-08T06:10:49.180Z,3.63
2023-07-08T06:13:16.313Z,3.47
2023-07-08T06:15:43.568Z,3.58
2023-07-08T06:18:10.720Z,3.78
2023-07-08T06:20:37.865Z,4.10
2023-07-08T06:23:04.986Z,3.75
2023-07-08T06:25:33.421Z,3.80
2023-07-08T06:28:00.637Z,3.47
2023-07-08T06:30:27.742Z,3.45
2023-07-08T06:32:55.124Z,3.65
2023-07-08T06:35:22.321Z,3.25
2023-07-08T06:37:49.487Z,3.03
2023-07-08T06:40:18.435Z,2.65
2023-07-08T06:42:45.535Z,2.15
2023-07-08T06:45:31.264Z,2.67
2023-07-08T06:47:58.417Z,2.40
2023-07-08T06:50:25.548Z,2.72
2023-07-08T06:52:52.629Z,1.95
2023-07-08T06:55:19.880Z,2.03
2023-07-08T06:57:46.903Z,2.92
2023-07-08T07:00:14.198Z,2.28
2023-07-08T07:02:41.368Z,2.50
2023-07-08T07:05:08.856Z,2.15
2023-07-08T07:07:36.082Z,2.67
2023-07-08T07:10:04.335Z,2.03
2023-07-08T07:12:31.509Z,3.00
2023-07-08T07:14:58.618Z,2.47
2023-07-08T07:17:26.994Z,2.50
2023-07-08T07:19:57.280Z,3.20
2023-07-08T07:22:24.805Z,3.28
2023-07-08T07:24:51.943Z,2.45
2023-07-08T07:27:19.268Z,2.72
2023-07-08T07:29:50.955Z,3.17
2023-07-08T07:32:19.763Z,3.00
2023-07-08T07:34:50.406Z,2.55
2023-07-08T07:37:19.526Z,2.90
2023-07-08T07:39:46.782Z,2.63
2023-07-08T07:42:17.398Z,2.75
2023-07-08T07:44:45.604Z,3.50
2023-07-08T07:47:13.408Z,3.38
2023-07-08T07:49:41.052Z,3.20
2023-07-08T07:52:08.515Z,3.20
2023-07-08T07:54:35.880Z,3.10
2023-07-08T07:57:03.067Z,3.03
2023-07-08T07:59:30.606Z,3.05
2023-07-08T08:01:57.822Z,2.97
2023-07-08T08:04:24.893Z,3.28
2023-07-08T08:06:51.982Z,3.13
2023-07-08T08:09:19.126Z,3.38
2023-07-08T08:11:46.188Z,3.05
2023-07-08T08:14:14.349Z,3.17
2023-07-08T08:16:41.497Z,3.33
2023-07-08T08:19:09.210Z,2.22
2023-07-08T08:21:36.746Z,3.47
2023-07-08T08:24:04.067Z,3.47
2023-07-08T08:26:31.276Z,3.90
2023-07-08T08:28:58.713Z,3.60
2023-07-08T08:31:25.888Z,3.50
2023-07-08T08:33:53.583Z,3.15
2023-07-08T08:36:21.860Z,2.88
2023-07-08T08:38:49.011Z,3.55
2023-07-08T08:41:19.991Z,3.15
2023-07-08T08:43:49.186Z,3.30
2023-07-08T08:46:19.266Z,3.03
2023-07-08T08:48:55.364Z,2.20
2023-07-08T08:51:24.545Z,3.25
2023-07-08T08:53:56.960Z,3.38
2023-07-08T08:59:09.089Z,4.72
2023-07-08T09:01:38.100Z,3.22
2023-07-08T09:04:20.633Z,2.97
2023-07-08T09:06:48.028Z,3.55
2023-07-08T09:09:29.945Z,3.25
2023-07-08T09:12:12.798Z,3.15
2023-07-08T09:14:39.873Z,3.15
2023-07-08T09:17:31.616Z,2.97
2023-07-08T09:20:04.632Z,2.53
2023-07-08T09:22:44.845Z,3.75
2023-07-08T09:25:36.814Z,3.08
2023-07-08T09:28:04.097Z,2.60
2023-07-08T09:30:31.794Z,3.10
2023-07-08T09:33:03.050Z,3.25
2023-07-08T09:35:41.723Z,2.60
2023-07-08T09:38:10.460Z,2.78
2023-07-08T09:40:37.524Z,2.78
2023-07-08T09:43:50.251Z,3.60
2023-07-08T09:46:17.603Z,3.00
2023-07-08T09:48:44.728Z,3.58
2023-07-08T09:51:11.803Z,2.90
2023-07-08T09:53:38.965Z,2.72
2023-07-08T09:56:09.549Z,3.38
2023-07-08T09:58:43.157Z,3.40
2023-07-08T10:01:13.943Z,2.78
2023-07-08T10:03:43.037Z,2.80
2023-07-08T10:06:31.842Z,2.33
2023-07-08T10:09:04.006Z,1.98
2023-07-08T10:11:35.852Z,2.08
2023-07-08T10:14:13.791Z,3.08
2023-07-08T10:16:42.040Z,1.95
2023-07-08T10:19:18.298Z,2.30
2023-07-08T10:21:54.679Z,3.58
2023-07-08T10:24:39.864Z,2.95
2023-07-08T10:27:23.226Z,2.63
2023-07-08T10:30:13.295Z,3.20
2023-07-08T10:32:55.501Z,3.65
2023-07-08T10:35:33.312Z,2.65
2023-07-08T10:38:23.564Z,3.17
2023-07-08T10:40:58.221Z,4.15
2023-07-08T10:44:00.531Z,3.28
2023-07-08T10:46:39.613Z,3.27
2023-07-08T10:49:26.059Z,3.40
2023-07-08T10:52:20.788Z,3.40
2023-07-08T10:55:09.781Z,3.00
2023-07-08T10:57:39.984Z,3.90
2023-07-08T11:00:32.975Z,3.72
2023-07-08T11:03:41.669Z,3.55
2023-07-08T11:06:27.660Z,5.70
2023-07-08T11:09:00.660Z,3.38
2023-07-08T11:11:34.882Z,3.28
2023-07-08T11:14:17.181Z,3.80
2023-07-08T11:17:01.193Z,3.55
2023-07-08T11:19:37.473Z,2.33
2023-07-08T11:22:10.556Z,2.58
2023-07-08T11:24:49.272Z,3.30
2023-07-08T11:27:44.142Z,2.92
2023-07-08T11:30:17.590Z,3.17
2023-07-08T11:32:48.287Z,2.65
2023-07-08T11:35:24.341Z,3.30
2023-07-08T11:37:58.356Z,3.78
2023-07-08T11:40:25.752Z,2.55
2023-07-08T11:43:01.095Z,2.85
2023-07-08T11:45:34.395Z,3.88
2023-07-08T11:48:06.457Z,3.17
2023-07-08T11:53:09.470Z,3.25
2023-07-08T11:55:43.875Z,4.15
2023-07-08T11:58:29.498Z,3.50
2023-07-08T12:01:01.187Z,2.80
2023-07-08T12:03:35.621Z,3.00
2023-07-08T12:06:07.348Z,3.28
2023-07-08T12:08:39.178Z,3.38
2023-07-08T12:11:13.626Z,3.67
2023-07-08T12:13:40.847Z,2.85
2023-07-08T12:16:17.014Z,4.10
2023-07-08T12:18:46.878Z,2.88
2023-07-08T12:21:14.566Z,3.78
2023-07-08T12:23:48.627Z,3.97
2023-07-08T12:26:17.077Z,3.22
2023-07-08T12:28:44.554Z,4.00
2023-07-08T12:31:17.685Z,3.00
2023-07-08T12:33:45.356Z,3.38
2023-07-08T12:36:26.762Z,2.95
2023-07-08T12:38:56.702Z,3.40
2023-07-08T12:41:37.293Z,3.22
2023-07-08T12:44:16.292Z,3.63
2023-07-08T12:46:43.369Z,3.22
2023-07-08T12:49:10.618Z,3.72
2023-07-08T12:51:37.714Z,3.50
2023-07-08T12:54:04.874Z,3.20
2023-07-08T12:56:32.115Z,3.22
2023-07-08T12:59:00.624Z,3.42
2023-07-08T13:01:30.990Z,3.97
2023-07-08T13:04:04.626Z,2.83
2023-07-08T13:06:34.994Z,2.20
2023-07-08T13:09:24.979Z,2.90
2023-07-08T13:11:54.658Z,2.75
2023-07-08T13:14:23.433Z,3.00
2023-07-08T13:16:50.786Z,2.70
2023-07-08T13:19:20.502Z,2.85
2023-07-08T13:21:51.716Z,3.38
2023-07-08T13:24:20.461Z,3.22
2023-07-08T13:26:49.890Z,3.63
2023-07-08T13:29:19.610Z,2.90
2023-07-08T13:31:53.865Z,3.25
2023-07-08T13:34:33.409Z,2.22
2023-07-08T13:37:00.720Z,2.40
2023-07-08T13:39:36.005Z,3.85
2023-07-08T13:42:28.121Z,4.35
2023-07-08T13:44:55.262Z,3.38
2023-07-08T13:47:24.072Z,3.47
2023-07-08T13:49:58.238Z,2.72
2023-07-08T13:52:25.318Z,2.97
2023-07-08T13:54:55.579Z,3.40
2023-07-08T13:57:29.269Z,3.30
2023-07-08T13:59:56.378Z,3.30
2023-07-08T14:02:27.428Z,2.67
2023-07-08T14:04:56.046Z,3.38
2023-07-08T14:07:26.264Z,3.05
2023-07-08T14:09:53.693Z,3.47
2023-07-08T14:12:24.352Z,3.90
2023-07-08T14:14:51.720Z,3.58
2023-07-08T14:17:28.882Z,3.60
2023-07-08T14:19:56.011Z,4.32
2023-07-08T14:22:26.616Z,3.80
2023-07-08T14:24:55.031Z,4.10
2023-07-08T14:27:22.625Z,3.58
2023-07-08T14:29:51.874Z,4.57
2023-07-08T14:32:31.236Z,2.90
2023-07-08T14:35:09.921Z,4.20
2023-07-08T14:37:37.019Z,3.22
2023-07-08T14:40:17.478Z,3.95
2023-07-08T14:42:44.520Z,4.25
2023-07-08T14:45:11.985Z,3.28
2023-07-08T14:47:39.056Z,4.38
2023-07-08T14:50:15.068Z,3.67
2023-07-08T14:52:42.209Z,4.72
2023-07-08T14:55:10.987Z,3.65
2023-07-08T14:57:57.375Z,4.50
2023-07-08T15:00:24.872Z,4.05
2023-07-08T15:02:53.115Z,4.13
2023-07-08T15:05:25.958Z,4.85
2023-07-08T15:07:54.984Z,3.83
2023-07-08T15:10:24.840Z,4.00
2023-07-08T15:12:52.115Z,3.92
2023-07-08T15:15:27.550Z,4.13
2023-07-08T15:17:54.997Z,3.08
2023-07-08T15:20:23.354Z,5.22
2023-07-08T15:22:51.140Z,4.30
2023-07-08T15:25:19.294Z,4.30
2023-07-08T15:27:53.433Z,4.47
2023-07-08T15:30:23.657Z,4.70
2023-07-08T15:32:52.318Z,4.65
2023-07-08T15:35:31.349Z,4.15
2023-07-08T15:38:00.212Z,3.20
2023-07-08T15:40:30.186Z,3.67
2023-07-08T15:43:00.649Z,4.28
2023-07-08T15:45:31.473Z,3.10
2023-07-08T15:47:58.571Z,3.95
2023-07-08T15:50:27.891Z,4.93
2023-07-08T15:52:55.917Z,3.63
2023-07-08T15:55:34.807Z,3.90
2023-07-08T15:58:15.257Z,3.90
2023-07-08T16:00:42.738Z,4.85
2023-07-08T16:03:22.911Z,3.58
2023-07-08T16:05:51.300Z,3.80
2023-07-08T16:08:18.853Z,3.80
2023-07-08T16:10:51.018Z,4.45
2023-07-08T16:15:50.388Z,4.25
2023-07-08T16:18:17.809Z,4.43
2023-07-08T16:20:46.090Z,3.95
2023-07-08T16:23:13.235Z,4.13
2023-07-08T16:25:44.632Z,3.40
2023-07-08T16:28:41.243Z,4.38
2023-07-08T16:31:17.494Z,3.85
2023-07-08T16:33:45.827Z,3.70
2023-07-08T16:36:15.044Z,4.15
2023-07-08T16:38:42.545Z,3.83
2023-07-08T16:41:14.696Z,3.33
2023-07-08T16:46:13.369Z,4.22
2023-07-08T16:48:41.183Z,3.60
2023-07-08T16:51:16.614Z,3.50
2023-07-08T16:53:44.917Z,4.28
2023-07-08T16:56:13.728Z,4.38
2023-07-08T16:58:40.917Z,3.63
2023-07-08T17:01:20.917Z,4.38
2023-07-08T17:03:50.017Z,4.20
2023-07-08T17:06:17.794Z,4.53
2023-07-08T17:08:44.887Z,4.72
2023-07-08T17:11:12.394Z,4.00
2023-07-08T17:13:39.690Z,3.63
2023-07-08T17:16:13.279Z,4.60
2023-07-08T17:18:40.690Z,3.53
2023-07-08T17:21:14.712Z,3.85
2023-07-08T17:23:42.149Z,4.40
2023-07-08T17:26:09.785Z,4.70
2023-07-08T17:28:37.101Z,4.30
2023-07-08T17:31:05.732Z,3.83
2023-07-08T17:33:33.162Z,3.97
2023-07-08T17:36:01.207Z,4.20
2023-07-08T17:38:47.956Z,4.90
2023-07-08T17:41:18.999Z,3.25
2023-07-08T17:43:47.726Z,3.03
2023-07-08T17:46:20.556Z,3.95
2023-07-08T17:48:49.016Z,3.97
2023-07-08T17:51:17.942Z,4.40
2023-07-08T17:53:45.420Z,3.55
2023-07-08T17:56:20.120Z,4.00
2023-07-08T17:58:50.321Z,3.28
2023-07-08T18:01:17.798Z,3.15
2023-07-08T18:03:45.027Z,4.25
2023-07-08T18:06:12.146Z,2.20
2023-07-08T18:08:39.315Z,4.25
2023-07-08T18:11:12.853Z,2.55
2023-07-08T18:13:40.496Z,4.90
2023-07-08T18:16:15.761Z,3.92
2023-07-08T18:18:43.367Z,5.22
2023-07-08T18:21:16.303Z,4.32
2023-07-08T18:23:44.034Z,5.20
2023-07-08T18:26:21.465Z,3.90
2023-07-08T18:28:49.102Z,5.53
2023-07-08T18:31:21.098Z,2.72
2023-07-08T18:33:51.796Z,4.13
2023-07-08T18:36:18.915Z,5.53
2023-07-08T18:38:46.068Z,5.68
2023-07-08T18:41:20.615Z,5.05
2023-07-08T18:43:47.995Z,3.95
2023-07-08T18:46:16.209Z,4.45
2023-07-08T18:48:43.996Z,5.15
2023-07-08T18:51:38.581Z,3.55
2023-07-08T18:54:18.935Z,5.28
2023-07-08T18:56:55.116Z,5.32
2023-07-08T18:59:24.860Z,3.55
2023-07-08T19:01:59.373Z,3.30
2023-07-08T19:04:29.876Z,4.63
2023-07-08T19:06:58.607Z,4.93
2023-07-08T19:09:26.135Z,5.65
2023-07-08T19:11:53.472Z,5.43
2023-07-08T19:14:20.677Z,5.53
2023-07-08T19:16:47.923Z,5.07
2023-07-08T19:19:15.099Z,4.70
2023-07-08T19:21:42.676Z,4.80
2023-07-08T19:24:21.223Z,3.97
2023-07-08T19:26:55.583Z,4.30
2023-07-08T19:29:22.671Z,4.43
2023-07-08T19:31:50.148Z,4.63
2023-07-08T19:34:17.956Z,3.67
2023-07-08T19:36:45.352Z,4.88
2023-07-08T19:39:12.591Z,3.88
2023-07-08T19:41:41.738Z,4.18
2023-07-08T19:44:13.329Z,3.42
2023-07-08T19:46:41.678Z,4.78
2023-07-08T19:49:10.697Z,3.70
2023-07-08T19:51:37.817Z,4.22
2023-07-08T19:54:05.270Z,5.03
2023-07-08T19:56:32.664Z,5.03
2023-07-08T19:59:01.663Z,4.57
2023-07-08T20:01:28.693Z,4.50
2023-07-08T20:03:55.928Z,4.53
2023-07-08T20:06:27.349Z,4.03
2023-07-08T20:08:56.067Z,4.68
2023-07-08T20:11:23.639Z,4.55
2023-07-08T20:13:50.827Z,4.28
2023-07-08T20:16:26.012Z,4.70
2023-07-08T20:18:53.413Z,4.78
2023-07-08T20:21:20.867Z,4.18
2023-07-08T20:23:48.003Z,4.32
2023-07-08T20:26:21.015Z,5.82
2023-07-08T20:28:48.077Z,4.70
2023-07-08T20:31:15.175Z,4.43
2023-07-08T20:33:42.222Z,4.70
2023-07-08T20:36:21.121Z,4.10
2023-07-08T20:38:48.270Z,4.72
2023-07-08T20:41:16.532Z,5.05
2023-07-08T20:43:43.759Z,6.45
2023-07-08T20:46:21.902Z,5.85
2023-07-08T20:48:51.445Z,6.82
2023-07-08T20:51:18.541Z,5.38
2023-07-08T20:53:45.628Z,5.60
2023-07-08T20:56:18.063Z,5.93
2023-07-08T21:01:12.383Z,5.43
2023-07-08T21:03:42.559Z,4.72
2023-07-08T21:06:15.938Z,5.35
2023-07-08T21:08:42.989Z,4.97
2023-07-08T21:11:11.821Z,4.88
2023-07-08T21:13:39.272Z,4.90
2023-07-08T21:16:13.552Z,4.40
2023-07-08T21:18:40.808Z,4.60
2023-07-08T21:21:09.551Z,4.47
2023-07-08T21:23:37.043Z,4.95
2023-07-08T21:26:16.121Z,5.22
2023-07-08T21:28:46.617Z,4.65
2023-07-08T21:31:14.751Z,4.38
2023-07-08T21:33:42.252Z,4.43
2023-07-08T21:36:27.610Z,5.35
2023-07-08T21:38:58.829Z,5.03
2023-07-08T21:41:25.894Z,4.43
2023-07-08T21:43:53.063Z,4.68
2023-07-08T21:46:22.030Z,4.93
2023-07-08T21:48:49.929Z,5.50
2023-07-08T21:51:28.630Z,4.78
2023-07-08T21:53:56.474Z,4.55
2023-07-08T21:56:23.899Z,5.00
2023-07-08T21:58:51.028Z,4.85
2023-07-08T22:01:20.663Z,4.60
2023-07-08T22:03:48.610Z,5.75
2023-07-08T22:06:20.736Z,4.75
2023-07-08T22:08:47.949Z,5.35
2023-07-08T22:11:36.459Z,5.03
2023-07-08T22:14:04.683Z,4.75
2023-07-08T22:16:33.543Z,4.65
2023-07-08T22:19:02.980Z,5.35
2023-07-08T22:21:33.760Z,5.28
2023-07-08T22:24:06.217Z,5.28
2023-07-08T22:29:04.160Z,4.28
2023-07-08T22:31:34.802Z,4.85
2023-07-08T22:34:03.784Z,4.70
2023-07-08T22:36:30.874Z,5.00
2023-07-08T22:39:00.775Z,4.72
2023-07-08T22:41:29.148Z,5.00
2023-07-08T22:43:56.341Z,4.72
2023-07-08T22:46:23.489Z,5.32
2023-07-08T22:48:58.452Z,5.43
2023-07-08T22:51:27.723Z,4.85
2023-07-08T22:53:57.302Z,5.07
2023-07-08T22:56:24.412Z,4.63
2023-07-08T22:58:51.444Z,4.40
2023-07-08T23:01:18.456Z,4.30
2023-07-08T23:03:45.535Z,4.70
2023-07-08T23:06:16.570Z,4.80
2023-07-08T23:08:43.729Z,4.90
2023-07-08T23:11:14.036Z,4.30
2023-07-08T23:13:43.964Z,4.32
2023-07-08T23:16:16.982Z,5.03
2023-07-08T23:18:47.782Z,5.03
2023-07-08T23:21:17.163Z,5.47
2023-07-08T23:23:44.199Z,4.65
2023-07-08T23:26:14.472Z,4.68
2023-07-08T23:28:41.993Z,4.97
2023-07-08T23:31:11.371Z,4.97
2023-07-08T23:33:38.438Z,4.60
2023-07-08T23:36:22.388Z,4.32
2023-07-08T23:38:50.344Z,4.82
2023-07-08T23:41:18.956Z,4.82
2023-07-08T23:43:46.923Z,5.22
2023-07-08T23:46:23.163Z,5.30
2023-07-08T23:48:51.563Z,4.72
2023-07-08T23:51:18.765Z,4.53
2023-07-08T23:53:45.896Z,5.10
2023-07-08T23:56:15.152Z,4.78
2023-07-08T23:58:43.753Z,5.05
